Time;durP1;ratioP1;P1;durP2;ratioP2;P2;SDS_P1;SDS_P2;PMS_P1;PMS_P2;Temp;Humidity;BMP_temperature;BMP_pressure;BME280_temperature;BME280_humidity;BME280_pressure;Samples;Min_cycle;Max_cycle;Signal;HPM_P1;HPM_P2
2021/05/11 00:01:44;;;;;;;1.83;1.10;;;;;;;21.08;34.80;101006.59;5044281;28;20056;-63
2021/05/11 00:04:12;;;;;;;1.17;0.90;;;;;;;21.06;34.76;101003.25;5030288;28;20053;-57
2021/05/11 00:06:39;;;;;;;3.85;1.48;;;;;;;21.04;35.01;100995.41;5030268;28;20099;-56
2021/05/11 00:09:06;;;;;;;4.47;1.50;;;;;;;21.01;34.96;100993.03;5029834;28;20104;-57
2021/05/11 00:11:34;;;;;;;3.00;1.45;;;;;;;21.01;35.23;100995.69;5049996;28;20099;-57
2021/05/11 00:14:03;;;;;;;5.40;2.45;;;;;;;20.99;35.09;100987.84;5050276;28;20486;-57
2021/05/11 00:16:30;;;;;;;3.13;1.38;;;;;;;21.00;35.05;100991.34;5050254;28;20052;-57
2021/05/11 00:18:57;;;;;;;3.53;1.42;;;;;;;20.98;34.74;100991.50;5049965;28;20057;-57
2021/05/11 00:21:23;;;;;;;3.55;1.30;;;;;;;20.96;34.95;100982.81;5031478;28;20076;-58
2021/05/11 00:23:49;;;;;;;2.10;1.00;;;;;;;20.92;34.93;100989.41;5036257;28;20048;-66
2021/05/11 00:26:15;;;;;;;3.95;1.27;;;;;;;20.90;34.84;100979.88;5042503;28;20049;-57
2021/05/11 00:28:41;;;;;;;2.40;1.20;;;;;;;20.89;34.51;100971.06;5030737;28;20084;-58
2021/05/11 00:31:07;;;;;;;1.40;0.90;;;;;;;20.88;34.96;100972.84;5033028;28;20050;-57
2021/05/11 00:33:33;;;;;;;2.55;1.15;;;;;;;20.85;34.72;100959.84;5033219;28;20045;-66
2021/05/11 00:35:59;;;;;;;2.38;1.00;;;;;;;20.85;34.44;100964.34;5037052;28;20379;-56
2021/05/11 00:38:26;;;;;;;2.67;1.05;;;;;;;20.84;34.90;100968.81;5052813;28;20049;-57
2021/05/11 00:40:52;;;;;;;2.58;1.25;;;;;;;20.83;34.68;100976.97;5052343;28;20045;-57
2021/05/11 00:43:18;;;;;;;3.58;0.98;;;;;;;20.83;34.80;100985.81;5033024;28;20056;-57
2021/05/11 00:45:44;;;;;;;1.90;1.10;;;;;;;20.81;34.81;100982.47;5032800;28;20521;-57
2021/05/11 00:48:10;;;;;;;2.30;1.45;;;;;;;20.81;34.81;100978.94;5032806;28;20100;-57
2021/05/11 00:50:36;;;;;;;2.25;1.00;;;;;;;20.80;34.75;100978.13;5032877;28;20052;-57
2021/05/11 00:53:03;;;;;;;2.65;1.20;;;;;;;20.78;34.57;100982.75;5032696;28;20406;-67
2021/05/11 00:55:29;;;;;;;2.55;0.90;;;;;;;20.77;34.53;100986.38;5032799;28;20045;-56
2021/05/11 00:57:55;;;;;;;1.83;0.80;;;;;;;20.78;34.41;100985.41;5034789;28;20053;-57
2021/05/11 01:00:22;;;;;;;1.95;0.80;;;;;;;20.77;34.43;100986.38;5052589;28;20049;-59
2021/05/11 01:02:48;;;;;;;2.72;0.90;;;;;;;20.78;34.71;100987.25;5052706;28;20049;-57
2021/05/11 01:05:15;;;;;;;2.55;1.00;;;;;;;20.75;34.60;100975.06;5052619;28;20080;-58
2021/05/11 01:07:41;;;;;;;3.15;1.13;;;;;;;20.76;35.01;100967.88;5052524;28;20421;-63
2021/05/11 01:10:08;;;;;;;5.10;1.23;;;;;;;20.75;34.92;100963.53;5052318;28;20060;-57
2021/05/11 01:12:34;;;;;;;3.70;1.48;;;;;;;20.75;34.92;100958.19;5052399;28;20052;-58
2021/05/11 01:15:00;;;;;;;3.42;1.00;;;;;;;20.72;34.66;100954.00;5037817;28;20048;-57
2021/05/11 01:17:33;;;;;;;3.63;1.08;;;;;;;20.71;34.97;100950.50;5032386;28;20391;-58
2021/05/11 01:20:03;;;;;;;4.70;1.10;;;;;;;20.71;34.79;100957.69;5032416;28;20124;-67
2021/05/11 01:25:08;;;;;;;4.93;1.30;;;;;;;20.67;35.05;100941.09;5032191;28;20483;-57
2021/05/11 01:44:51;;;;;;;7.40;1.25;;;;;;;20.60;36.48;100955.16;5032268;28;20053;-57
2021/05/11 01:50:14;;;;;;;3.95;1.23;;;;;;;20.56;37.62;100982.09;5029366;28;20108;-57
2021/05/11 01:55:37;;;;;;;3.75;1.35;;;;;;;20.52;39.85;100987.91;5036185;28;20099;-57
2021/05/11 02:25:08;;;;;;;2.83;1.20;;;;;;;20.22;42.55;100934.66;5035461;28;20092;-58
2021/05/11 02:27:36;;;;;;;5.55;1.48;;;;;;;20.23;42.29;100931.03;5035426;28;20071;-57
2021/05/11 02:30:04;;;;;;;2.28;1.23;;;;;;;20.20;42.16;100920.69;5035232;28;20053;-57
2021/05/11 02:32:31;;;;;;;3.17;1.30;;;;;;;20.20;41.62;100918.00;5035484;28;20050;-57
2021/05/11 02:34:57;;;;;;;1.70;1.10;;;;;;;20.18;41.54;100917.31;5035531;28;20111;-58
2021/05/11 02:37:23;;;;;;;2.90;1.05;;;;;;;20.18;41.37;100913.81;5035278;28;20053;-57
2021/05/11 02:39:49;;;;;;;6.68;1.10;;;;;;;20.17;40.99;100918.28;5034812;28;20045;-57
2021/05/11 02:42:15;;;;;;;3.13;1.52;;;;;;;20.17;40.74;100912.13;5035157;28;20076;-57
2021/05/11 02:44:44;;;;;;;6.55;2.40;;;;;;;20.16;40.70;100911.31;5035279;28;20111;-56
2021/05/11 02:47:10;;;;;;;2.35;1.20;;;;;;;20.16;40.72;100918.44;5035020;28;20049;-57
2021/05/11 02:49:41;;;;;;;2.40;0.93;;;;;;;20.15;41.06;100920.28;5035034;28;20137;-67
2021/05/11 02:52:07;;;;;;;2.85;1.20;;;;;;;20.14;40.82;100917.75;5035048;28;20109;-60
2021/05/11 02:54:33;;;;;;;2.08;0.90;;;;;;;20.14;40.40;100910.59;5035218;28;20053;-64
2021/05/11 02:56:59;;;;;;;2.53;1.23;;;;;;;20.14;40.18;100915.09;5035034;28;20053;-57
2021/05/11 02:59:25;;;;;;;1.33;1.00;;;;;;;20.14;39.59;100904.44;5035168;28;20052;-58
2021/05/11 03:01:51;;;;;;;2.70;1.10;;;;;;;20.13;39.55;100913.41;5034005;28;20041;-58
2021/05/11 03:04:18;;;;;;;2.28;0.93;;;;;;;20.12;39.53;100917.88;5048985;28;20160;-67
2021/05/11 03:06:44;;;;;;;3.13;1.27;;;;;;;20.13;39.53;100926.72;5051386;28;20049;-58
2021/05/11 03:09:11;;;;;;;2.15;1.00;;;;;;;20.12;39.17;100928.53;5048052;28;20071;-58
2021/05/11 03:11:38;;;;;;;1.42;1.00;;;;;;;20.12;39.12;100935.69;5031583;28;20045;-63
2021/05/11 03:14:04;;;;;;;5.50;1.10;;;;;;;20.12;39.22;100915.22;5031209;28;20053;-57
2021/05/11 03:16:33;;;;;;;3.42;1.17;;;;;;;20.14;38.98;100913.25;5031329;28;20731;-57
2021/05/11 03:18:59;;;;;;;1.48;0.90;;;;;;;20.12;38.83;100907.22;5031211;28;20053;-64
2021/05/11 03:21:25;;;;;;;2.47;0.82;;;;;;;20.13;38.80;100910.75;5031108;28;20041;-57
2021/05/11 03:23:52;;;;;;;2.72;0.80;;;;;;;20.13;38.99;100910.75;5031234;28;20498;-57
2021/05/11 03:26:18;;;;;;;2.15;0.90;;;;;;;20.13;38.92;100916.91;5030792;28;20042;-58
2021/05/11 03:28:44;;;;;;;2.90;1.00;;;;;;;20.13;38.44;100926.72;5030986;28;20490;-57
2021/05/11 03:31:10;;;;;;;2.17;0.82;;;;;;;20.12;38.30;100936.53;5031127;28;20056;-57
2021/05/11 03:33:36;;;;;;;2.70;1.17;;;;;;;20.12;38.29;100930.38;5031229;28;20045;-57
2021/05/11 03:36:02;;;;;;;4.05;1.05;;;;;;;20.13;38.62;100935.56;5030715;28;20049;-57
2021/05/11 03:38:29;;;;;;;1.45;0.90;;;;;;;20.12;38.40;100923.22;5030715;28;20056;-57
2021/05/11 03:40:55;;;;;;;2.67;1.00;;;;;;;20.13;38.43;100932.06;5030917;28;20115;-57
2021/05/11 03:43:25;;;;;;;1.55;1.08;;;;;;;20.13;38.72;100932.06;5030617;28;20049;-57
2021/05/11 03:45:55;;;;;;;3.80;0.90;;;;;;;20.14;38.96;100933.75;5030850;28;20041;-57
2021/05/11 03:48:22;;;;;;;1.48;0.90;;;;;;;20.12;38.53;100944.53;5030524;28;20049;-57
2021/05/11 03:50:49;;;;;;;3.83;1.05;;;;;;;20.12;39.25;100955.19;5030746;28;20552;-57
2021/05/11 03:53:16;;;;;;;1.35;0.82;;;;;;;20.12;39.88;100971.16;5030624;28;20506;-58
2021/05/11 03:55:42;;;;;;;1.17;0.75;;;;;;;20.11;40.64;100979.31;5030530;28;20049;-67
2021/05/11 03:58:09;;;;;;;3.13;1.10;;;;;;;20.09;41.18;100978.59;5030655;28;20107;-57
2021/05/11 04:00:36;;;;;;;2.72;1.00;;;;;;;20.08;41.80;100984.94;5030337;28;20121;-57
2021/05/11 04:03:03;;;;;;;4.05;1.10;;;;;;;20.07;42.06;100986.75;5030350;28;20437;-67
2021/05/11 04:05:32;;;;;;;1.48;1.10;;;;;;;20.05;41.97;100994.88;5030131;28;20494;-67
2021/05/11 04:08:00;;;;;;;2.08;0.98;;;;;;;20.04;42.10;101001.19;5030301;28;20058;-57
2021/05/11 04:18:11;;;;;;;1.70;1.20;;;;;;;19.97;46.65;101034.72;5029915;28;20053;-57
2021/05/11 04:20:38;;;;;;;4.10;1.10;;;;;;;19.93;47.37;101040.47;5030024;28;20057;-67
2021/05/11 04:23:04;;;;;;;3.88;1.40;;;;;;;19.92;47.87;101044.09;5030033;28;20471;-59
2021/05/11 04:25:31;;;;;;;3.08;1.20;;;;;;;19.89;49.29;101043.41;5029950;28;20553;-67
2021/05/11 04:27:58;;;;;;;2.65;1.10;;;;;;;19.86;49.51;101038.38;5029814;28;20092;-57
2021/05/11 04:30:24;;;;;;;3.70;1.42;;;;;;;19.84;49.74;101024.34;5029632;28;20564;-57
2021/05/11 04:32:51;;;;;;;5.13;1.20;;;;;;;19.81;49.79;101018.44;5029887;28;20096;-56
2021/05/11 04:35:18;;;;;;;4.55;1.48;;;;;;;19.79;50.06;101010.56;5029680;28;20058;-56
2021/05/11 04:37:45;;;;;;;6.72;2.00;;;;;;;19.77;50.81;101001.03;5029888;28;20045;-57
2021/05/11 04:40:12;;;;;;;2.40;1.30;;;;;;;19.73;50.59;101008.47;5029553;28;20505;-57
2021/05/11 04:42:42;;;;;;;4.13;1.42;;;;;;;19.70;50.63;101003.44;5029548;28;20105;-57
2021/05/11 04:45:10;;;;;;;1.85;1.23;;;;;;;19.66;50.25;100986.91;5029988;28;20255;-64
2021/05/11 04:47:47;;;;;;;4.63;1.58;;;;;;;19.64;50.58;100999.53;5029902;28;20516;-57
2021/05/11 04:50:22;;;;;;;2.45;1.35;;;;;;;19.61;50.42;101007.78;5030399;28;20100;-57
2021/05/11 04:52:49;;;;;;;2.60;1.27;;;;;;;19.59;49.97;101007.06;5049192;28;20064;-57
2021/05/11 04:55:18;;;;;;;2.13;1.70;;;;;;;19.57;50.38;100991.25;5048998;28;20049;-58
2021/05/11 04:57:45;;;;;;;2.28;1.20;;;;;;;19.56;50.27;100978.06;5049046;28;20045;-57
2021/05/11 05:00:14;;;;;;;4.43;1.90;;;;;;;19.56;51.15;100983.41;5048550;28;20048;-63
2021/05/11 05:02:48;;;;;;;2.47;1.77;;;;;;;19.56;51.22;100991.38;5045374;28;20489;-61
2021/05/11 05:05:16;;;;;;;4.20;1.92;;;;;;;19.55;51.83;100995.88;5048684;28;20727;-62
2021/05/11 05:07:42;;;;;;;3.97;2.35;;;;;;;19.55;51.93;100992.34;5030973;28;20045;-62
2021/05/11 05:10:11;;;;;;;3.88;2.20;;;;;;;19.54;52.32;101001.31;5033099;28;20075;-62
2021/05/11 05:12:44;;;;;;;6.07;2.30;;;;;;;19.52;52.08;100998.81;5049245;28;20072;-62
2021/05/11 05:15:21;;;;;;;7.72;1.40;;;;;;;19.52;52.49;101000.63;5044553;28;20112;-62
2021/05/11 05:17:50;;;;;;;12.13;2.10;;;;;;;19.51;52.69;101001.59;5028749;28;20065;-63
2021/05/11 05:20:16;;;;;;;5.57;2.65;;;;;;;19.52;52.83;100990.81;5029092;28;20056;-61
2021/05/11 05:22:43;;;;;;;3.60;2.70;;;;;;;19.51;52.90;100988.31;5029115;28;20042;-62
2021/05/11 05:25:17;;;;;;;6.72;1.83;;;;;;;19.51;53.54;100988.31;5047179;28;20068;-61
2021/05/11 05:30:20;;;;;;;4.03;1.55;;;;;;;19.47;53.02;100974.44;5028833;28;20061;-62
2021/05/11 05:32:47;;;;;;;6.80;1.75;;;;;;;19.46;53.05;100964.75;5028995;28;20049;-61
2021/05/11 05:35:16;;;;;;;2.75;1.70;;;;;;;19.44;53.41;100944.59;5029146;28;20084;-60
2021/05/11 05:37:42;;;;;;;3.97;1.63;;;;;;;19.40;53.55;100928.06;5028823;28;20045;-61
2021/05/11 05:40:10;;;;;;;8.32;2.67;;;;;;;19.38;53.50;100916.72;5028920;28;20482;-60
2021/05/11 05:42:37;;;;;;;3.15;1.30;;;;;;;19.35;53.44;100917.84;5044380;28;20048;-60
2021/05/11 05:45:04;;;;;;;3.25;1.30;;;;;;;19.32;53.36;100912.78;5048631;28;20048;-61
2021/05/11 05:47:31;;;;;;;2.17;1.27;;;;;;;19.30;53.22;100906.78;5048687;28;20044;-60
2021/05/11 05:50:05;;;;;;;2.58;1.27;;;;;;;19.27;53.40;100919.53;5048574;28;20045;-59
2021/05/11 05:52:35;;;;;;;2.05;1.30;;;;;;;19.27;53.47;100919.53;5042691;28;20054;-60
2021/05/11 05:55:02;;;;;;;5.10;1.98;;;;;;;19.27;53.82;100914.19;5039846;28;20456;-60
2021/05/11 05:57:29;;;;;;;5.07;1.80;;;;;;;19.26;53.44;100924.00;5047149;28;20056;-60
2021/05/11 05:59:55;;;;;;;2.63;1.42;;;;;;;19.27;53.67;100912.38;5048237;28;20052;-60
2021/05/11 06:02:23;;;;;;;6.20;1.70;;;;;;;19.27;53.60;100914.19;5048260;28;20041;-62
2021/05/11 06:04:50;;;;;;;3.10;1.75;;;;;;;19.27;54.22;100925.66;5048218;28;20094;-60
2021/05/11 06:07:16;;;;;;;4.07;2.20;;;;;;;19.26;54.05;100947.94;5048089;28;20052;-60
2021/05/11 06:09:43;;;;;;;4.20;1.65;;;;;;;19.25;54.26;100952.44;5048249;28;20045;-60
2021/05/11 06:12:21;;;;;;;3.70;2.10;;;;;;;19.24;54.44;100960.56;5048463;28;20056;-62
2021/05/11 06:17:04;;;;;;;3.47;2.33;;;;;;;19.25;55.20;100972.88;5030968;28;20410;-61
2021/05/11 06:17:47;;;;;;;4.63;1.83;;;;;;;19.23;55.53;100980.16;5028011;28;20534;-61
2021/05/11 06:20:14;;;;;;;4.03;1.85;;;;;;;19.21;55.86;100988.28;5028125;28;20042;-62
2021/05/11 06:22:41;;;;;;;6.15;2.03;;;;;;;19.20;56.62;100985.75;5028281;28;20564;-62
2021/05/11 06:25:09;;;;;;;3.28;1.85;;;;;;;19.18;56.83;100985.88;5028249;28;20049;-61
2021/05/11 06:27:35;;;;;;;3.75;2.03;;;;;;;19.15;57.05;100991.47;5028930;28;20050;-61
2021/05/11 06:30:03;;;;;;;4.47;2.03;;;;;;;19.17;57.67;100999.31;5039299;28;20520;-61
2021/05/11 06:32:29;;;;;;;4.85;2.75;;;;;;;19.15;58.43;101001.28;5047887;28;20052;-62
2021/05/11 06:35:04;;;;;;;6.90;3.05;;;;;;;19.14;59.20;101005.75;5047860;28;20052;-63
2021/05/11 06:37:30;;;;;;;6.90;2.47;;;;;;;19.11;58.87;101015.81;5046741;28;20056;-62
2021/05/11 06:39:58;;;;;;;6.43;2.55;;;;;;;19.08;59.29;101022.25;5049229;28;20049;-62
2021/05/11 06:42:27;;;;;;;5.70;2.70;;;;;;;19.03;59.77;101025.34;5051297;28;20056;-62
2021/05/11 06:46:02;;;;;;;5.55;1.98;;;;;;;19.01;60.22;101032.59;5050833;28;20053;-61
2021/05/11 06:48:08;;;;;;;4.07;2.63;;;;;;;18.97;60.72;101041.84;5048430;28;20061;-61
2021/05/11 06:50:42;;;;;;;7.97;3.47;;;;;;;18.96;61.37;101041.94;5051273;28;20060;-62
2021/05/11 06:53:12;;;;;;;8.55;2.53;;;;;;;18.95;61.79;101045.59;5051023;28;20044;-62
2021/05/11 06:55:45;;;;;;;4.47;2.25;;;;;;;18.91;62.19;101042.38;5050302;28;20045;-62
2021/05/11 06:58:11;;;;;;;5.10;2.80;;;;;;;18.88;62.49;101037.28;5047698;28;20037;-66
2021/05/11 07:00:42;;;;;;;5.80;2.60;;;;;;;18.87;62.76;101031.13;5050972;28;20059;-61
2021/05/11 07:03:09;;;;;;;6.50;2.70;;;;;;;18.86;62.49;101029.44;5046530;28;20520;-61
2021/05/11 07:05:36;;;;;;;5.57;2.67;;;;;;;18.85;62.56;101030.41;5050620;28;20049;-61
2021/05/11 07:10:41;;;;;;;6.45;2.33;;;;;;;18.83;62.99;101023.53;5050072;28;20045;-62
2021/05/11 07:13:24;;;;;;;4.32;2.80;;;;;;;18.82;62.60;101046.63;5050654;28;20072;-61
2021/05/11 07:15:52;;;;;;;5.78;2.40;;;;;;;18.82;62.63;101048.47;5049984;28;20053;-62
2021/05/11 07:18:22;;;;;;;10.27;2.90;;;;;;;18.83;63.32;101056.31;5050286;28;20074;-63
2021/05/11 07:20:54;;;;;;;5.95;3.30;;;;;;;18.80;62.88;101053.88;5048766;28;20052;-60
2021/05/11 07:23:21;;;;;;;6.25;3.40;;;;;;;18.78;63.29;101071.81;5048129;28;20063;-62
2021/05/11 07:31:29;;;;;;;5.63;2.67;;;;;;;18.73;63.37;101036.81;5044259;28;20056;-61
2021/05/11 07:33:57;;;;;;;5.82;2.88;;;;;;;18.73;63.51;101024.34;5050183;28;20041;-61
2021/05/11 07:36:24;;;;;;;4.20;3.22;;;;;;;18.73;63.41;101024.34;5047479;28;20045;-61
2021/05/11 07:38:51;;;;;;;6.47;3.40;;;;;;;18.73;63.85;101024.34;5046873;28;20467;-61
2021/05/11 07:41:18;;;;;;;5.47;3.10;;;;;;;18.73;63.72;101023.53;5049648;28;20468;-61
2021/05/11 07:43:51;;;;;;;6.10;3.13;;;;;;;18.72;63.80;101008.53;5049967;28;20463;-61
2021/05/11 08:15:54;;;;;;;4.43;2.77;;;;;;;18.49;64.50;100944.94;5047143;28;20155;-60
2021/05/11 08:29:31;;;;;;;6.05;2.40;;;;;;;18.42;64.14;100919.84;5046023;28;20174;-61
2021/05/11 08:31:57;;;;;;;3.78;2.60;;;;;;;18.42;64.61;100927.81;5047936;28;20049;-62
2021/05/11 08:34:24;;;;;;;4.30;2.35;;;;;;;18.40;64.51;100917.34;5048929;28;20044;-61
2021/05/11 08:36:51;;;;;;;3.72;2.20;;;;;;;18.39;64.29;100920.97;5048834;28;20086;-61
2021/05/11 08:39:21;;;;;;;3.42;1.92;;;;;;;18.40;64.12;100927.16;5047572;28;20053;-61
2021/05/11 08:41:48;;;;;;;4.20;2.58;;;;;;;18.41;64.18;100927.00;5049053;28;20044;-61
2021/05/11 08:44:16;;;;;;;3.30;2.13;;;;;;;18.43;64.07;100919.72;5048748;28;20459;-61
2021/05/11 08:46:43;;;;;;;3.17;1.80;;;;;;;18.46;64.10;100913.28;5048058;28;20127;-61
2021/05/11 08:49:14;;;;;;;3.65;2.00;;;;;;;18.47;64.25;100917.63;5046116;28;20127;-62
2021/05/11 08:51:54;;;;;;;3.65;1.83;;;;;;;18.46;63.93;100915.94;5048433;28;20444;-61
2021/05/11 09:25:10;;;;;;;;;;;;;;;18.53;64.06;100820.59;5048445;28;20037;-62
2021/05/11 09:27:50;;;;;;;4.53;1.70;;;;;;;18.54;64.31;100832.91;5048407;28;19925;-63
2021/05/11 09:30:29;;;;;;;3.97;2.13;;;;;;;18.55;64.21;100821.28;5047139;28;20485;-62
2021/05/11 09:33:09;;;;;;;5.80;2.35;;;;;;;18.56;64.43;100813.22;5047044;28;20114;-62
2021/05/11 10:36:21;;;;;;;2.00;1.48;;;;;;;18.65;63.36;100792.06;5045836;28;20076;-62
2021/05/11 10:47:00;;;;;;;2.03;1.30;;;;;;;18.58;64.09;100781.16;5044853;28;20057;-64
2021/05/11 10:49:40;;;;;;;2.35;1.55;;;;;;;18.56;64.13;100776.00;5043209;28;20098;-64
2021/05/11 10:52:37;;;;;;;2.00;1.42;;;;;;;18.57;64.18;100771.50;5042849;28;20512;-64
2021/05/11 10:55:12;;;;;;;1.10;1.00;;;;;;;18.56;64.12;100762.72;5050881;28;20083;-63
2021/05/11 11:03:26;;;;;;;3.17;1.75;;;;;;;18.55;64.53;100789.41;5031196;28;20441;-63
2021/05/11 11:06:02;;;;;;;4.97;1.52;;;;;;;18.56;64.98;100809.69;5031415;28;20491;-63
2021/05/11 11:08:36;;;;;;;2.30;1.38;;;;;;;18.57;64.42;100804.22;5031478;28;20498;-64
2021/05/11 11:11:36;;;;;;;4.38;1.83;;;;;;;18.70;65.57;100811.09;5031918;28;20045;-63
2021/05/11 11:14:03;;;;;;;4.38;1.77;;;;;;;18.77;65.71;100805.09;5016799;28;20049;-64
2021/05/11 11:16:41;;;;;;;2.53;1.70;;;;;;;18.75;66.28;100801.75;5032073;28;20049;-63
2021/05/11 11:19:12;;;;;;;4.55;1.83;;;;;;;18.74;66.43;100800.06;5032848;28;20082;-67
2021/05/11 11:24:34;;;;;;;8.23;1.90;;;;;;;18.71;66.13;100799.50;5033932;28;20159;-64
2021/05/11 11:27:01;;;;;;;25.02;3.30;;;;;;;18.68;65.88;100794.47;5035097;28;20111;-63
2021/05/11 11:29:28;;;;;;;14.70;2.72;;;;;;;18.65;65.69;100795.59;5049996;28;20075;-64
2021/05/11 11:31:55;;;;;;;9.77;2.80;;;;;;;18.65;65.72;100786.75;5050040;28;20489;-64
2021/05/11 11:34:28;;;;;;;20.98;3.30;;;;;;;18.63;65.79;100778.94;5044802;28;20047;-63
2021/05/11 11:36:58;;;;;;;7.68;1.75;;;;;;;18.63;65.45;100781.59;5050081;28;20049;-65
2021/05/11 11:39:35;;;;;;;3.33;1.20;;;;;;;18.62;65.80;100785.22;5049833;28;20067;-62
2021/05/11 11:42:05;;;;;;;2.45;1.20;;;;;;;18.63;65.97;100778.94;5049698;28;20102;-63
2021/05/11 11:44:39;;;;;;;2.75;1.48;;;;;;;18.64;65.77;100783.28;5050381;28;20052;-65
2021/05/11 11:47:08;;;;;;;2.55;1.23;;;;;;;18.66;66.02;100786.63;5050369;28;20045;-64
2021/05/11 11:49:45;;;;;;;2.60;1.20;;;;;;;18.64;65.88;100788.59;5042946;28;20046;-64
2021/05/11 11:52:37;;;;;;;1.25;1.00;;;;;;;18.64;66.30;100785.06;5030453;28;20056;-65
2021/05/11 11:57:56;;;;;;;5.22;1.30;;;;;;;18.62;66.44;100773.75;5030165;28;20119;-65
2021/05/11 12:00:24;;;;;;;2.60;1.25;;;;;;;18.59;66.54;100773.03;5029945;28;20060;-64
2021/05/11 12:02:54;;;;;;;3.70;1.40;;;;;;;18.56;66.09;100777.78;5041975;28;20045;-66
2021/05/11 12:05:29;;;;;;;4.13;2.15;;;;;;;18.54;66.21;100769.97;5049786;28;20056;-68
2021/05/11 12:10:34;;;;;;;1.55;1.42;;;;;;;18.52;66.07;100760.47;5029651;28;20060;-66
2021/05/11 12:13:07;;;;;;;2.50;1.05;;;;;;;18.50;65.78;100757.09;5036944;28;20497;-65
2021/05/11 12:15:33;;;;;;;2.50;1.23;;;;;;;18.49;66.05;100760.75;5046550;28;20486;-65
2021/05/11 12:18:06;;;;;;;1.33;0.90;;;;;;;18.47;66.04;100755.53;5048428;28;20080;-63
2021/05/11 12:21:01;;;;;;;2.17;0.80;;;;;;;18.47;65.97;100752.88;5049303;28;20124;-64
2021/05/11 12:23:29;;;;;;;2.83;1.02;;;;;;;18.48;65.99;100741.28;5047831;28;20053;-64
2021/05/11 12:26:04;;;;;;;2.17;1.05;;;;;;;18.50;65.65;100738.47;5047102;28;20044;-65
2021/05/11 12:28:35;;;;;;;;;;;;;;;18.54;65.37;100738.06;5049682;28;20041;-63
2021/05/11 12:31:07;;;;;;;1.65;0.88;;;;;;;18.62;65.27;100739.22;5048534;28;19967;-65
2021/05/11 12:33:42;;;;;;;4.03;1.30;;;;;;;18.67;65.18;100736.97;5049337;28;20049;-65
2021/05/11 12:36:22;;;;;;;2.35;0.75;;;;;;;18.71;65.52;100744.50;5049260;28;20087;-66
2021/05/11 12:38:50;;;;;;;2.63;0.90;;;;;;;18.74;65.46;100746.91;5048006;28;20049;-64
2021/05/11 12:41:32;;;;;;;3.28;1.02;;;;;;;18.77;65.50;100754.56;5032789;28;20478;-64
2021/05/11 12:44:03;;;;;;;1.33;0.93;;;;;;;18.80;65.55;100764.09;5043328;28;20405;-65
2021/05/11 12:46:31;;;;;;;3.83;1.60;;;;;;;18.82;65.55;100756.81;5048956;28;20045;-64
2021/05/11 12:48:59;;;;;;;4.72;1.30;;;;;;;18.84;65.60;100762.00;5048630;28;20501;-65
2021/05/11 12:51:43;;;;;;;4.18;1.30;;;;;;;18.86;65.90;100760.06;5048680;28;20064;-64
2021/05/11 13:02:46;;;;;;;3.15;1.27;;;;;;;18.89;67.30;100742.00;5028854;28;20050;-65
2021/05/11 13:16:50;;;;;;;3.63;1.80;;;;;;;18.96;67.02;100723.69;5047882;28;20045;-62
2021/05/11 13:27:33;;;;;;;3.33;1.77;;;;;;;18.93;67.79;100711.50;5048681;28;20432;-62
2021/05/11 13:35:24;;;;;;;5.00;2.00;;;;;;;18.85;67.58;100711.34;5028548;28;20443;-63
2021/05/11 13:37:51;;;;;;;4.40;2.15;;;;;;;18.82;67.64;100718.78;5028137;28;20057;-64
2021/05/11 13:40:18;;;;;;;5.00;1.75;;;;;;;18.77;67.91;100719.19;5028581;28;20056;-63
2021/05/11 13:42:44;;;;;;;5.07;1.95;;;;;;;18.74;67.70;100722.13;5036179;28;20045;-64
2021/05/11 13:45:12;;;;;;;2.63;1.60;;;;;;;18.68;67.99;100726.19;5047389;28;20049;-64
2021/05/11 13:47:41;;;;;;;7.20;2.22;;;;;;;18.66;67.48;100720.16;5035790;28;20053;-64
2021/05/11 13:50:12;;;;;;;2.60;1.63;;;;;;;18.63;67.84;100723.13;5032052;28;20115;-64
2021/05/11 13:52:39;;;;;;;2.55;1.30;;;;;;;18.60;67.89;100720.72;5032561;28;20057;-65
2021/05/11 13:55:16;;;;;;;3.67;1.60;;;;;;;18.57;68.02;100726.31;5032506;28;20071;-64
2021/05/11 14:03:17;;;;;;;6.05;1.58;;;;;;;18.54;68.13;100721.31;5032082;28;20053;-63
2021/05/11 14:05:45;;;;;;;3.08;1.45;;;;;;;18.53;67.42;100719.63;5032117;28;20052;-63
2021/05/11 14:08:12;;;;;;;5.55;1.75;;;;;;;18.52;67.68;100702.00;5037322;28;20049;-64
2021/05/11 14:10:40;;;;;;;4.13;1.60;;;;;;;18.52;67.79;100707.31;5052162;28;20482;-64
2021/05/11 14:13:07;;;;;;;2.17;1.50;;;;;;;18.51;67.83;100701.16;5052263;28;20049;-64
2021/05/11 14:15:33;;;;;;;3.55;1.55;;;;;;;18.48;67.46;100698.78;5052505;28;20049;-68
2021/05/11 14:18:00;;;;;;;3.25;1.25;;;;;;;18.44;67.56;100689.41;5051879;28;20053;-64
2021/05/11 14:20:30;;;;;;;2.05;1.00;;;;;;;18.38;67.55;100696.09;5049361;28;20045;-63
2021/05/11 14:22:57;;;;;;;3.17;1.40;;;;;;;18.35;67.60;100693.75;5031953;28;20422;-63
2021/05/11 14:25:24;;;;;;;4.25;1.30;;;;;;;18.33;67.74;100695.69;5032323;28;20085;-64
2021/05/11 14:27:51;;;;;;;3.85;1.15;;;;;;;18.30;67.73;100688.00;5031669;28;20042;-64
2021/05/11 14:30:18;;;;;;;1.73;1.25;;;;;;;18.30;67.57;100687.16;5031344;28;20507;-64
2021/05/11 14:32:45;;;;;;;2.47;1.10;;;;;;;18.27;67.64;100689.13;5031803;28;20060;-63
2021/05/11 14:35:13;;;;;;;2.80;1.27;;;;;;;18.26;67.57;100683.94;5031559;28;20045;-64
2021/05/11 14:37:40;;;;;;;4.63;1.73;;;;;;;18.24;67.40;100672.63;5032032;28;20055;-64
2021/05/11 14:40:08;;;;;;;1.70;1.08;;;;;;;18.24;67.58;100677.94;5031701;28;20045;-64
2021/05/11 14:42:35;;;;;;;2.00;0.93;;;;;;;18.23;67.85;100679.75;5043622;28;20048;-64
2021/05/11 14:45:03;;;;;;;3.75;1.23;;;;;;;18.24;67.72;100672.63;5051180;28;20459;-64
2021/05/11 14:47:30;;;;;;;2.92;1.60;;;;;;;18.19;67.77;100666.88;5050899;28;20044;-64
2021/05/11 14:49:57;;;;;;;5.47;1.20;;;;;;;18.15;67.92;100666.31;5051170;28;20482;-64
2021/05/11 14:52:26;;;;;;;5.00;1.30;;;;;;;18.13;67.86;100668.25;5051174;28;20061;-64
2021/05/11 14:54:53;;;;;;;2.63;1.65;;;;;;;18.10;67.58;100665.91;5048057;28;20520;-64
2021/05/11 14:57:34;;;;;;;2.47;1.48;;;;;;;18.08;68.03;100668.69;5031445;28;20057;-63
2021/05/11 15:00:02;;;;;;;4.80;1.50;;;;;;;18.07;68.02;100663.53;5038363;28;20102;-65
2021/05/11 15:02:39;;;;;;;2.03;1.40;;;;;;;18.03;67.97;100656.78;5051230;28;20520;-64
2021/05/11 15:05:06;;;;;;;3.88;1.60;;;;;;;18.00;68.27;100662.38;5051062;28;20040;-65
2021/05/11 15:07:32;;;;;;;3.15;1.65;;;;;;;17.98;68.41;100662.53;5050273;28;20405;-63
2021/05/11 15:09:59;;;;;;;2.88;1.60;;;;;;;17.95;68.57;100655.69;5051072;28;20083;-65
2021/05/11 15:12:26;;;;;;;4.05;1.60;;;;;;;17.93;68.92;100656.75;5049653;28;20069;-65
2021/05/11 15:14:53;;;;;;;2.17;1.77;;;;;;;17.92;68.55;100657.75;5031024;28;20049;-65
2021/05/11 15:19:52;;;;;;;3.28;1.70;;;;;;;17.88;69.10;100651.84;5050189;28;20597;-65
2021/05/11 15:22:20;;;;;;;2.72;1.77;;;;;;;17.88;69.19;100640.41;5050374;28;20057;-65
2021/05/11 15:24:48;;;;;;;2.58;1.70;;;;;;;17.88;69.16;100643.06;5050970;28;20119;-66
2021/05/11 15:27:16;;;;;;;2.85;1.60;;;;;;;17.86;69.31;100645.84;5050483;28;20501;-66
2021/05/11 15:29:47;;;;;;;3.90;2.15;;;;;;;17.86;69.44;100637.03;5050486;28;20081;-65
2021/05/11 15:32:47;;;;;;;3.10;1.92;;;;;;;17.85;69.53;100636.22;5039255;28;20531;-65
2021/05/11 15:35:16;;;;;;;5.53;1.98;;;;;;;17.85;69.66;100645.97;5048874;28;20049;-65
2021/05/11 15:37:45;;;;;;;2.50;2.05;;;;;;;17.84;69.61;100633.66;5050388;28;20049;-65
2021/05/11 15:40:39;;;;;;;4.88;1.95;;;;;;;17.83;69.49;100632.03;5050661;28;20413;-66
2021/05/11 15:43:06;;;;;;;3.03;1.75;;;;;;;17.83;69.90;100635.50;5050749;28;20402;-65
2021/05/11 15:45:34;;;;;;;2.65;1.90;;;;;;;17.83;69.94;100637.31;5050577;28;20048;-65
2021/05/11 15:48:02;;;;;;;4.78;2.15;;;;;;;17.82;69.97;100636.47;5048736;28;20056;-65
2021/05/11 15:50:31;;;;;;;3.67;1.90;;;;;;;17.81;69.94;100636.63;5030864;28;20056;-66
2021/05/11 15:53:02;;;;;;;2.45;1.70;;;;;;;17.78;69.59;100630.59;5030048;28;20056;-65
2021/05/11 15:55:35;;;;;;;4.20;2.10;;;;;;;17.78;69.91;100624.47;5030623;28;20061;-65
2021/05/11 15:58:02;;;;;;;4.05;2.28;;;;;;;17.75;69.63;100625.56;5030137;28;20049;-65
2021/05/11 16:00:29;;;;;;;3.25;2.10;;;;;;;17.75;69.87;100619.41;5029998;28;20088;-65
2021/05/11 16:03:03;;;;;;;4.65;1.90;;;;;;;17.73;69.91;100614.25;5030396;28;20073;-65
2021/05/11 16:05:34;;;;;;;2.55;1.80;;;;;;;17.72;69.99;100614.38;5030186;28;20052;-65